Time;durP1;ratioP1;P1;durP2;ratioP2;P2;SDS_P1;SDS_P2;PMS_P1;PMS_P2;Temp;Humidity;BMP_temperature;BMP_pressure;BME280_temperature;BME280_humidity;BME280_pressure;Samples;Min_cycle;Max_cycle;Signal;HPM_P1;HPM_P2
2021/09/12 00:00:43;;;;;;;23.67;17.20;;;;;;;;;;5119816;28;20433;-56
2021/09/12 00:03:10;;;;;;;15.63;12.00;;;;;;;;;;5119708;28;20483;-52
2021/09/12 00:06:03;;;;;;;13.10;11.10;;;;;;;;;;5119529;28;20489;-53
2021/09/12 00:08:31;;;;;;;12.33;10.70;;;;;;;;;;5119313;28;20447;-49
2021/09/12 00:10:59;;;;;;;22.40;16.23;;;;;;;;;;5119083;28;20467;-50
2021/09/12 00:16:30;;;;;;;14.07;10.70;;;;;;;;;;5118531;28;20433;-51
2021/09/12 00:18:57;;;;;;;19.53;14.60;;;;;;;;;;5119017;28;20459;-50
2021/09/12 00:21:27;;;;;;;37.23;24.80;;;;;;;;;;5118774;28;20448;-50
2021/09/12 00:23:55;;;;;;;28.70;20.77;;;;;;;;;;5118975;28;20451;-54
2021/09/12 00:26:23;;;;;;;24.23;15.90;;;;;;;;;;5119114;28;20481;-52
2021/09/12 00:28:50;;;;;;;13.87;11.90;;;;;;;;;;5118851;28;20469;-57
2021/09/12 00:31:17;;;;;;;24.23;12.20;;;;;;;;;;5118969;28;20483;-57
2021/09/12 00:34:04;;;;;;;12.17;6.80;;;;;;;;;;5118912;28;20443;-55
2021/09/12 00:36:32;;;;;;;28.07;22.10;;;;;;;;;;5119591;28;20427;-49
2021/09/12 00:39:03;;;;;;;19.90;13.67;;;;;;;;;;5118995;28;20448;-54
2021/09/12 00:41:46;;;;;;;13.07;6.83;;;;;;;;;;5118607;28;20444;-56
2021/09/12 00:44:14;;;;;;;10.33;8.20;;;;;;;;;;5119013;28;20439;-47
2021/09/12 00:46:42;;;;;;;18.60;10.47;;;;;;;;;;5118355;28;20459;-56
2021/09/12 00:49:14;;;;;;;10.17;7.27;;;;;;;;;;5117916;28;20465;-54
2021/09/12 00:51:41;;;;;;;17.53;12.03;;;;;;;;;;5116595;28;20475;-57
2021/09/12 00:54:11;;;;;;;26.10;14.20;;;;;;;;;;5118047;28;20469;-58
2021/09/12 00:56:42;;;;;;;9.30;7.53;;;;;;;;;;5118252;28;20454;-56
2021/09/12 00:59:12;;;;;;;96.37;79.33;;;;;;;;;;5118086;28;20464;-48
2021/09/12 01:01:41;;;;;;;73.73;56.53;;;;;;;;;;5118160;28;20464;-57
2021/09/12 01:04:42;;;;;;;10.17;7.13;;;;;;;;;;5117709;28;20454;-55
2021/09/12 01:07:10;;;;;;;9.80;7.20;;;;;;;;;;5117806;28;20473;-50
2021/09/12 01:09:39;;;;;;;15.40;9.20;;;;;;;;;;5117586;28;20479;-49
2021/09/12 01:12:12;;;;;;;42.17;29.07;;;;;;;;;;5118376;28;20455;-54
2021/09/12 01:14:40;;;;;;;12.07;9.87;;;;;;;;;;5116607;28;20494;-52
2021/09/12 01:17:08;;;;;;;14.43;9.50;;;;;;;;;;5118210;28;20451;-49
2021/09/12 01:20:06;;;;;;;15.33;9.43;;;;;;;;;;5118171;28;20456;-47
2021/09/12 01:22:34;;;;;;;14.60;9.60;;;;;;;;;;5118185;28;20462;-49
2021/09/12 01:25:04;;;;;;;14.30;10.03;;;;;;;;;;5118151;28;20452;-58
2021/09/12 01:30:35;;;;;;;14.00;9.50;;;;;;;;;;5115910;28;20513;-50
2021/09/12 01:33:03;;;;;;;10.20;8.57;;;;;;;;;;5117805;28;20499;-54
2021/09/12 01:35:31;;;;;;;117.53;75.83;;;;;;;;;;5117713;28;20481;-52
2021/09/12 01:37:58;;;;;;;45.53;26.47;;;;;;;;;;5117633;28;20443;-47
2021/09/12 01:40:27;;;;;;;22.80;16.33;;;;;;;;;;5118102;28;20466;-50
2021/09/12 01:43:01;;;;;;;41.00;29.07;;;;;;;;;;5118221;28;20481;-49
2021/09/12 01:45:28;;;;;;;43.50;29.23;;;;;;;;;;5135250;27;20449;-52
2021/09/12 01:47:59;;;;;;;22.73;15.67;;;;;;;;;;5130541;28;20511;-49
2021/09/12 01:50:40;;;;;;;14.93;11.60;;;;;;;;;;5117423;28;20481;-50
2021/09/12 01:53:07;;;;;;;18.73;10.50;;;;;;;;;;5117820;28;20453;-55
2021/09/12 01:55:36;;;;;;;12.40;8.33;;;;;;;;;;5118134;28;20435;-48
2021/09/12 01:58:40;;;;;;;24.63;14.73;;;;;;;;;;5117359;28;20439;-49
2021/09/12 02:01:07;;;;;;;25.03;15.40;;;;;;;;;;5117522;28;20462;-53
2021/09/12 02:03:35;;;;;;;27.90;17.00;;;;;;;;;;5116868;28;20459;-52
2021/09/12 02:06:21;;;;;;;26.60;12.60;;;;;;;;;;5116848;28;20443;-52
2021/09/12 02:08:50;;;;;;;15.07;9.60;;;;;;;;;;5115189;28;20479;-55
2021/09/12 02:11:19;;;;;;;14.70;7.17;;;;;;;;;;5117245;28;20483;-52
2021/09/12 02:16:51;;;;;;;8.10;5.00;;;;;;;;;;5114870;28;20469;-54
2021/09/12 02:19:18;;;;;;;7.50;5.40;;;;;;;;;;5117197;28;20507;-56
2021/09/12 02:21:47;;;;;;;6.70;5.93;;;;;;;;;;5117165;28;20451;-53
2021/09/12 02:24:14;;;;;;;12.67;6.83;;;;;;;;;;5117153;28;20477;-56
2021/09/12 02:26:42;;;;;;;10.83;5.50;;;;;;;;;;5117267;28;20427;-54
2021/09/12 02:29:16;;;;;;;7.73;5.77;;;;;;;;;;5117358;28;20537;-50
2021/09/12 02:31:43;;;;;;;6.60;5.60;;;;;;;;;;5116937;28;20538;-44
2021/09/12 02:34:14;;;;;;;9.03;6.30;;;;;;;;;;5117221;28;20467;-49
2021/09/12 02:36:52;;;;;;;8.20;5.93;;;;;;;;;;5117099;28;20463;-49
2021/09/12 02:39:20;;;;;;;6.60;5.43;;;;;;;;;;5117176;28;20489;-51
2021/09/12 02:41:49;;;;;;;9.63;6.00;;;;;;;;;;5117011;28;20450;-50
2021/09/12 02:44:22;;;;;;;6.47;5.13;;;;;;;;;;5116487;28;20446;-46
2021/09/12 02:46:49;;;;;;;9.50;5.87;;;;;;;;;;5116705;28;20447;-57
2021/09/12 02:49:17;;;;;;;7.30;5.47;;;;;;;;;;5116518;28;20455;-49
2021/09/12 02:51:50;;;;;;;12.73;6.13;;;;;;;;;;5120532;28;20491;-49
2021/09/12 02:54:17;;;;;;;8.43;5.60;;;;;;;;;;5120458;28;20480;-52
2021/09/12 02:56:45;;;;;;;8.70;7.00;;;;;;;;;;5120521;28;20471;-50
2021/09/12 02:59:30;;;;;;;7.37;5.00;;;;;;;;;;5120122;28;20454;-55
2021/09/12 03:01:57;;;;;;;7.13;4.93;;;;;;;;;;5120439;28;20450;-53
2021/09/12 03:04:25;;;;;;;6.80;5.10;;;;;;;;;;5120261;28;20450;-54
2021/09/12 03:09:56;;;;;;;10.53;4.33;;;;;;;;;;5118251;28;20526;-53
2021/09/12 03:12:24;;;;;;;6.93;4.23;;;;;;;;;;5120641;28;20463;-53
2021/09/12 03:14:52;;;;;;;7.40;5.07;;;;;;;;;;5120611;28;20471;-52
2021/09/12 03:17:26;;;;;;;4.63;4.10;;;;;;;;;;5120639;28;20447;-54
2021/09/12 03:22:56;;;;;;;5.50;4.40;;;;;;;;;;5120097;28;20457;-54
2021/09/12 03:25:24;;;;;;;5.80;3.70;;;;;;;;;;5120504;28;20458;-51
2021/09/12 03:28:01;;;;;;;6.63;4.50;;;;;;;;;;5119845;28;20463;-54
2021/09/12 03:30:36;;;;;;;7.07;4.30;;;;;;;;;;5119600;28;20516;-48
2021/09/12 03:33:04;;;;;;;6.60;4.07;;;;;;;;;;5119847;28;20447;-48
2021/09/12 03:35:31;;;;;;;6.23;4.87;;;;;;;;;;5119677;28;20458;-55
2021/09/12 03:37:59;;;;;;;8.47;4.07;;;;;;;;;;5119971;28;20467;-55
2021/09/12 03:40:26;;;;;;;7.60;4.73;;;;;;;;;;5119553;28;20441;-49
2021/09/12 03:43:12;;;;;;;5.30;4.17;;;;;;;;;;5119712;28;20484;-52
2021/09/12 03:45:42;;;;;;;6.63;4.80;;;;;;;;;;5119702;28;20434;-49
2021/09/12 03:48:10;;;;;;;6.40;4.30;;;;;;;;;;5137868;28;20435;-48
2021/09/12 03:50:44;;;;;;;6.70;4.93;;;;;;;;;;5140215;28;20494;-53
2021/09/12 03:53:11;;;;;;;8.37;5.20;;;;;;;;;;5139903;28;20459;-50
2021/09/12 03:55:39;;;;;;;6.10;4.63;;;;;;;;;;5140361;28;20419;-54
2021/09/12 03:58:15;;;;;;;10.13;5.20;;;;;;;;;;5140352;28;20450;-53
2021/09/12 04:00:44;;;;;;;8.67;6.27;;;;;;;;;;5138859;28;20450;-52
2021/09/12 04:03:11;;;;;;;7.63;6.50;;;;;;;;;;5139978;28;20494;-50
2021/09/12 04:06:08;;;;;;;12.27;5.70;;;;;;;;;;5139751;28;20446;-56
2021/09/12 04:08:36;;;;;;;8.70;5.83;;;;;;;;;;5139583;28;20482;-52
2021/09/12 04:11:03;;;;;;;7.60;5.73;;;;;;;;;;5140482;28;20458;-58
2021/09/12 04:13:53;;;;;;;10.77;7.30;;;;;;;;;;5140094;28;20458;-56
2021/09/12 04:16:22;;;;;;;10.50;6.47;;;;;;;;;;5098626;28;20486;-53
2021/09/12 04:18:49;;;;;;;9.50;6.13;;;;;;;;;;5098533;28;20448;-50
2021/09/12 04:24:21;;;;;;;10.10;7.07;;;;;;;;;;5115054;28;20465;-48
2021/09/12 04:26:48;;;;;;;9.73;6.23;;;;;;;;;;5117517;28;20494;-57
2021/09/12 04:29:21;;;;;;;8.00;5.40;;;;;;;;;;5118802;28;20463;-54
2021/09/12 04:31:49;;;;;;;13.00;5.90;;;;;;;;;;5116895;28;20510;-55
2021/09/12 04:34:17;;;;;;;10.30;6.13;;;;;;;;;;5118080;28;20440;-52
2021/09/12 04:37:13;;;;;;;10.77;6.43;;;;;;;;;;5118272;28;20459;-54
2021/09/12 04:39:40;;;;;;;7.17;5.50;;;;;;;;;;5116633;28;20506;-53
2021/09/12 04:42:08;;;;;;;9.70;6.00;;;;;;;;;;5119070;28;20752;-52
2021/09/12 04:44:35;;;;;;;8.50;6.17;;;;;;;;;;5118678;28;20497;-48
2021/09/12 04:47:04;;;;;;;8.50;6.30;;;;;;;;;;5118540;28;20444;-50
2021/09/12 04:50:01;;;;;;;12.63;5.80;;;;;;;;;;5118675;28;20443;-51
2021/09/12 04:52:29;;;;;;;8.50;5.10;;;;;;;;;;5118400;28;20520;-49
2021/09/12 04:54:56;;;;;;;9.07;6.80;;;;;;;;;;5117930;28;20518;-53
2021/09/12 04:57:23;;;;;;;8.97;6.27;;;;;;;;;;5118044;28;20451;-50
2021/09/12 04:59:54;;;;;;;8.87;5.70;;;;;;;;;;5117942;28;20459;-53
2021/09/12 05:02:24;;;;;;;6.63;5.10;;;;;;;;;;5118039;28;20431;-54
2021/09/12 05:04:51;;;;;;;11.10;5.87;;;;;;;;;;5118510;28;20432;-51
2021/09/12 05:07:19;;;;;;;7.50;6.00;;;;;;;;;;5118266;28;20436;-49
2021/09/12 05:09:46;;;;;;;8.97;6.13;;;;;;;;;;5118270;28;20443;-54
2021/09/12 05:12:13;;;;;;;7.83;5.63;;;;;;;;;;5117730;28;20497;-47
2021/09/12 05:15:07;;;;;;;8.13;6.10;;;;;;;;;;5117321;28;20522;-50
2021/09/12 05:17:37;;;;;;;10.03;7.37;;;;;;;;;;5117877;28;20463;-53
2021/09/12 05:20:04;;;;;;;8.30;5.87;;;;;;;;;;5117936;28;20450;-54
2021/09/12 05:22:41;;;;;;;12.33;6.43;;;;;;;;;;5117734;28;20485;-55
2021/09/12 05:25:09;;;;;;;9.40;6.07;;;;;;;;;;5117792;28;20443;-52
2021/09/12 05:27:36;;;;;;;8.43;6.53;;;;;;;;;;5117693;28;20476;-52
2021/09/12 05:30:36;;;;;;;14.07;6.43;;;;;;;;;;5117280;28;20443;-51
2021/09/12 05:33:05;;;;;;;12.00;6.77;;;;;;;;;;5115124;28;20494;-53
2021/09/12 05:35:32;;;;;;;10.57;6.20;;;;;;;;;;5117484;28;20451;-55
2021/09/12 05:38:00;;;;;;;10.30;6.97;;;;;;;;;;5117976;28;20489;-55
2021/09/12 05:40:27;;;;;;;12.13;6.17;;;;;;;;;;5117721;28;20427;-53
2021/09/12 05:45:58;;;;;;;9.33;5.47;;;;;;;;;;5117063;28;20490;-54
2021/09/12 05:48:29;;;;;;;7.10;5.57;;;;;;;;;;5117065;28;20482;-53
2021/09/12 05:54:00;;;;;;;11.83;6.43;;;;;;;;;;5116974;28;20674;-51
2021/09/12 05:56:27;;;;;;;8.17;6.63;;;;;;;;;;5117455;28;20450;-50
2021/09/12 05:59:14;;;;;;;10.80;5.80;;;;;;;;;;5117583;28;20464;-54
2021/09/12 06:01:42;;;;;;;8.77;5.60;;;;;;;;;;5114945;28;20493;-51
2021/09/12 06:04:10;;;;;;;9.00;6.00;;;;;;;;;;5117407;28;20617;-50
2021/09/12 06:06:44;;;;;;;9.03;5.70;;;;;;;;;;5117222;28;20524;-58
2021/09/12 06:09:12;;;;;;;12.60;6.93;;;;;;;;;;5116903;28;20463;-55
2021/09/12 06:11:39;;;;;;;7.13;5.40;;;;;;;;;;5116340;28;20498;-56
2021/09/12 06:14:14;;;;;;;9.97;6.87;;;;;;;;;;5136479;28;20461;-55
2021/09/12 06:16:51;;;;;;;10.40;6.37;;;;;;;;;;5129745;28;20453;-51
2021/09/12 06:19:20;;;;;;;9.60;5.70;;;;;;;;;;5117320;28;20451;-56
2021/09/12 06:21:47;;;;;;;9.90;6.93;;;;;;;;;;5116584;28;20435;-58
2021/09/12 06:24:15;;;;;;;9.83;6.40;;;;;;;;;;5116878;28;20462;-52
2021/09/12 06:27:01;;;;;;;11.60;7.27;;;;;;;;;;5117283;28;20522;-53
2021/09/12 06:29:28;;;;;;;10.10;6.60;;;;;;;;;;5130384;28;20995;-54
2021/09/12 06:31:56;;;;;;;8.20;5.50;;;;;;;;;;5116765;28;20486;-55
2021/09/12 06:34:25;;;;;;;6.70;5.17;;;;;;;;;;5116485;28;20459;-50
2021/09/12 06:36:56;;;;;;;5.93;5.30;;;;;;;;;;5116704;28;20459;-52
2021/09/12 06:39:33;;;;;;;12.23;5.93;;;;;;;;;;5116827;28;20446;-52
2021/09/12 06:42:00;;;;;;;9.40;5.83;;;;;;;;;;5116521;28;20443;-52
2021/09/12 06:44:27;;;;;;;9.63;5.60;;;;;;;;;;5116405;28;20874;-54
2021/09/12 06:50:00;;;;;;;8.80;6.17;;;;;;;;;;5116365;28;20413;-53
2021/09/12 06:52:27;;;;;;;9.87;6.37;;;;;;;;;;5116323;28;20479;-56
2021/09/12 06:55:10;;;;;;;8.53;5.73;;;;;;;;;;5117116;28;20487;-48
2021/09/12 06:57:37;;;;;;;11.50;6.30;;;;;;;;;;5122507;28;20458;-49
2021/09/12 07:00:05;;;;;;;7.80;5.63;;;;;;;;;;5125113;28;20450;-49
2021/09/12 07:02:54;;;;;;;12.73;7.13;;;;;;;;;;5136877;28;20478;-53
2021/09/12 07:05:42;;;;;;;8.43;6.10;;;;;;;;;;5137096;28;20434;-56
2021/09/12 07:08:09;;;;;;;14.73;6.73;;;;;;;;;;5137008;28;20454;-58
2021/09/12 07:10:37;;;;;;;8.90;6.30;;;;;;;;;;5136712;28;20899;-56
2021/09/12 07:13:04;;;;;;;8.43;6.50;;;;;;;;;;5136553;28;20551;-55
2021/09/12 07:15:33;;;;;;;10.30;7.10;;;;;;;;;;5130711;28;20493;-54
2021/09/12 07:18:00;;;;;;;12.00;6.60;;;;;;;;;;5116351;28;20473;-55
2021/09/12 07:20:29;;;;;;;14.83;6.17;;;;;;;;;;5116375;28;20451;-51
2021/09/12 07:23:16;;;;;;;11.90;7.20;;;;;;;;;;5116483;28;20476;-52
2021/09/12 07:25:44;;;;;;;11.90;6.30;;;;;;;;;;5116150;28;20439;-52
2021/09/12 07:28:17;;;;;;;13.80;8.70;;;;;;;;;;5116896;28;20447;-52
2021/09/12 07:31:02;;;;;;;9.20;5.17;;;;;;;;;;5115303;28;20449;-49
2021/09/12 07:33:37;;;;;;;9.00;5.93;;;;;;;;;;5116242;28;20463;-57
2021/09/12 07:36:16;;;;;;;8.00;5.33;;;;;;;;;;5117474;28;20423;-56
2021/09/12 07:38:44;;;;;;;9.73;5.97;;;;;;;;;;5116902;28;20557;-56
2021/09/12 07:41:13;;;;;;;16.00;5.40;;;;;;;;;;5119092;28;20432;-54
2021/09/12 07:44:12;;;;;;;11.63;5.70;;;;;;;;;;5118771;28;20431;-55
2021/09/12 07:46:39;;;;;;;9.13;6.03;;;;;;;;;;5114076;28;20487;-57
2021/09/12 07:49:06;;;;;;;14.20;6.20;;;;;;;;;;5118120;28;20454;-58
2021/09/12 07:51:36;;;;;;;9.37;5.40;;;;;;;;;;5118756;28;20494;-52
2021/09/12 07:54:04;;;;;;;7.83;5.13;;;;;;;;;;5119263;28;20445;-54
2021/09/12 07:56:31;;;;;;;8.40;5.17;;;;;;;;;;5118645;28;20459;-54
2021/09/12 07:58:59;;;;;;;10.33;4.93;;;;;;;;;;5098854;28;20443;-58
2021/09/12 08:01:28;;;;;;;7.73;3.77;;;;;;;;;;5098662;28;20444;-52
2021/09/12 08:03:55;;;;;;;7.83;4.33;;;;;;;;;;5109679;28;20516;-51
2021/09/12 08:06:26;;;;;;;7.37;4.60;;;;;;;;;;5119343;28;20536;-56
2021/09/12 08:09:32;;;;;;;6.83;4.47;;;;;;;;;;5119254;28;20440;-52
2021/09/12 08:12:02;;;;;;;7.07;4.50;;;;;;;;;;5117217;28;20487;-52
2021/09/12 08:14:30;;;;;;;19.00;4.37;;;;;;;;;;5119120;28;20481;-53
2021/09/12 08:16:58;;;;;;;9.37;5.87;;;;;;;;;;5118345;28;20455;-51
2021/09/12 08:19:25;;;;;;;8.60;4.53;;;;;;;;;;5119203;28;20423;-56
2021/09/12 08:22:07;;;;;;;12.17;4.77;;;;;;;;;;5118771;28;20412;-54
2021/09/12 08:24:35;;;;;;;6.67;3.70;;;;;;;;;;5118603;28;20457;-50
2021/09/12 08:27:11;;;;;;;6.10;3.87;;;;;;;;;;5118227;28;20455;-56
2021/09/12 08:29:47;;;;;;;6.93;4.20;;;;;;;;;;5118931;28;20451;-50
2021/09/12 08:32:16;;;;;;;9.90;4.17;;;;;;;;;;5116774;28;20591;-47
2021/09/12 08:34:43;;;;;;;5.67;3.80;;;;;;;;;;5119023;28;20459;-54
2021/09/12 08:37:11;;;;;;;5.50;3.10;;;;;;;;;;5118767;28;20447;-47
2021/09/12 08:39:43;;;;;;;4.77;2.97;;;;;;;;;;5118734;28;20514;-50
2021/09/12 08:42:16;;;;;;;7.77;3.43;;;;;;;;;;5118691;28;20432;-53
2021/09/12 08:47:53;;;;;;;6.90;4.30;;;;;;;;;;5116463;28;20498;-56
2021/09/12 08:50:21;;;;;;;12.03;4.03;;;;;;;;;;5116999;28;20434;-55
2021/09/12 08:53:14;;;;;;;7.90;3.73;;;;;;;;;;5118273;28;20471;-57
2021/09/12 08:55:42;;;;;;;11.37;3.90;;;;;;;;;;5099930;28;20512;-57
2021/09/12 08:58:13;;;;;;;4.60;3.07;;;;;;;;;;5118087;28;20481;-50
2021/09/12 09:00:53;;;;;;;6.43;3.47;;;;;;;;;;5117818;28;20610;-49
2021/09/12 09:03:21;;;;;;;6.53;2.80;;;;;;;;;;5126147;28;20462;-54
2021/09/12 09:05:52;;;;;;;4.40;2.90;;;;;;;;;;5117754;28;20439;-59
2021/09/12 09:08:32;;;;;;;5.47;2.03;;;;;;;;;;5118385;28;20519;-56
2021/09/12 09:11:04;;;;;;;3.40;2.00;;;;;;;;;;5116101;28;20554;-54
2021/09/12 09:13:36;;;;;;;3.90;2.00;;;;;;;;;;5114322;28;20548;-49
2021/09/12 09:16:04;;;;;;;7.20;2.60;;;;;;;;;;5104232;28;20466;-53
2021/09/12 09:18:49;;;;;;;4.33;2.30;;;;;;;;;;5111242;28;20463;-55
2021/09/12 09:21:47;;;;;;;3.97;2.60;;;;;;;;;;5118184;28;20451;-58
2021/09/12 09:24:17;;;;;;;4.80;2.70;;;;;;;;;;5118260;28;20525;-57
2021/09/12 09:26:46;;;;;;;4.43;2.77;;;;;;;;;;5117673;28;20447;-55
2021/09/12 09:29:23;;;;;;;8.70;2.93;;;;;;;;;;5117142;28;20460;-57
2021/09/12 09:32:01;;;;;;;4.53;2.50;;;;;;;;;;5116045;28;20475;-51
2021/09/12 09:34:30;;;;;;;7.03;2.93;;;;;;;;;;5117393;28;20455;-53
2021/09/12 09:37:08;;;;;;;5.30;2.53;;;;;;;;;;5117128;28;20477;-52
2021/09/12 09:39:36;;;;;;;4.60;2.40;;;;;;;;;;5116441;28;20450;-53
2021/09/12 09:42:37;;;;;;;4.67;2.67;;;;;;;;;;5103802;28;20452;-61
2021/09/12 09:45:07;;;;;;;5.93;2.70;;;;;;;;;;5035292;28;20489;-50
2021/09/12 09:48:03;;;;;;;6.80;2.20;;;;;;;;;;5038175;28;20442;-55
2021/09/12 09:50:31;;;;;;;6.20;2.97;;;;;;;;;;5096164;28;20451;-55
2021/09/12 09:53:02;;;;;;;4.10;2.60;;;;;;;;;;5116424;28;20491;-52
2021/09/12 09:55:39;;;;;;;6.33;3.00;;;;;;;;;;5116977;28;20443;-55
2021/09/12 09:58:10;;;;;;;9.10;3.37;;;;;;;;;;5116270;28;20522;-52
2021/09/12 10:00:39;;;;;;;4.47;2.50;;;;;;;;;;5116788;28;20459;-54
2021/09/12 10:03:18;;;;;;;7.47;2.90;;;;;;;;;;5117077;28;20428;-53
2021/09/12 10:05:47;;;;;;;8.20;2.67;;;;;;;;;;5116773;28;20443;-53
2021/09/12 10:08:20;;;;;;;5.97;3.37;;;;;;;;;;5116868;28;20482;-56
2021/09/12 10:10:50;;;;;;;4.13;2.40;;;;;;;;;;5116688;28;20473;-53
2021/09/12 10:13:19;;;;;;;7.03;3.00;;;;;;;;;;5117371;28;20550;-56
2021/09/12 10:15:49;;;;;;;5.67;3.23;;;;;;;;;;5107478;28;20455;-49
2021/09/12 10:18:35;;;;;;;5.27;2.73;;;;;;;;;;5113069;28;20522;-55
2021/09/12 10:21:21;;;;;;;5.83;2.63;;;;;;;;;;5114689;28;20431;-53
2021/09/12 10:23:57;;;;;;;4.13;2.60;;;;;;;;;;5116216;28;20455;-55
2021/09/12 10:26:29;;;;;;;5.33;3.03;;;;;;;;;;5116544;28;20450;-48
2021/09/12 10:29:01;;;;;;;6.27;3.27;;;;;;;;;;5116693;28;20477;-53
2021/09/12 10:34:58;;;;;;;7.53;2.63;;;;;;;;;;5116194;28;20451;-54
2021/09/12 10:37:33;;;;;;;4.53;2.83;;;;;;;;;;5116536;28;20427;-50
2021/09/12 10:40:00;;;;;;;5.07;2.40;;;;;;;;;;5116956;28;20446;-58
2021/09/12 10:42:28;;;;;;;6.20;2.80;;;;;;;;;;5115756;28;20519;-55
2021/09/12 10:45:14;;;;;;;5.17;2.40;;;;;;;;;;5116361;28;20423;-49
2021/09/12 10:47:53;;;;;;;4.50;2.53;;;;;;;;;;5110110;28;20457;-54
2021/09/12 10:50:45;;;;;;;3.50;1.83;;;;;;;;;;5117035;28;20489;-56
2021/09/12 10:53:20;;;;;;;4.50;2.57;;;;;;;;;;5104445;28;20463;-51
2021/09/12 10:56:01;;;;;;;5.10;2.60;;;;;;;;;;5116680;28;20434;-56
2021/09/12 10:58:33;;;;;;;5.50;3.10;;;;;;;;;;5109980;28;20470;-61
2021/09/12 11:01:04;;;;;;;5.53;2.27;;;;;;;;;;5099111;28;20475;-56
2021/09/12 11:03:31;;;;;;;7.10;2.80;;;;;;;;;;5115190;28;20463;-54
2021/09/12 11:06:21;;;;;;;3.77;2.43;;;;;;;;;;5116300;28;20471;-59
2021/09/12 11:08:51;;;;;;;5.23;2.90;;;;;;;;;;5104373;28;20650;-56
2021/09/12 11:11:40;;;;;;;6.53;3.00;;;;;;;;;;5118137;28;20453;-59
2021/09/12 11:14:08;;;;;;;4.97;2.00;;;;;;;;;;5119992;28;20483;-53
2021/09/12 11:16:35;;;;;;;3.70;2.00;;;;;;;;;;5114771;28;20466;-54
2021/09/12 11:19:06;;;;;;;3.97;2.10;;;;;;;;;;5119551;28;20455;-59
2021/09/12 11:21:35;;;;;;;4.87;2.17;;;;;;;;;;5119077;28;20439;-53
2021/09/12 11:27:08;;;;;;;4.93;2.00;;;;;;;;;;5119412;28;20429;-54
2021/09/12 11:29:36;;;;;;;6.37;2.60;;;;;;;;;;5119624;28;20477;-56
2021/09/12 11:32:23;;;;;;;4.40;1.60;;;;;;;;;;5111096;28;20531;-58
2021/09/12 11:34:52;;;;;;;5.80;2.30;;;;;;;;;;5099277;28;20463;-54
2021/09/12 11:37:22;;;;;;;6.00;3.20;;;;;;;;;;5099021;28;20474;-53
2021/09/12 11:39:55;;;;;;;5.57;2.60;;;;;;;;;;5099237;28;20521;-59
2021/09/12 11:42:25;;;;;;;5.40;2.10;;;;;;;;;;5098784;28;20466;-54
2021/09/12 11:45:12;;;;;;;4.63;1.97;;;;;;;;;;5098719;28;20435;-56
2021/09/12 11:47:39;;;;;;;6.27;2.47;;;;;;;;;;5098338;28;20515;-54
2021/09/12 11:50:15;;;;;;;3.13;1.67;;;;;;;;;;5110041;28;20647;-56
2021/09/12 11:52:44;;;;;;;4.33;2.60;;;;;;;;;;5114996;28;20486;-54
2021/09/12 11:55:23;;;;;;;7.37;2.97;;;;;;;;;;5102864;28;20530;-56
2021/09/12 11:58:09;;;;;;;5.20;3.57;;;;;;;;;;5119099;28;20454;-50
2021/09/12 12:00:54;;;;;;;6.00;2.97;;;;;;;;;;5118571;28;20467;-51
2021/09/12 12:03:29;;;;;;;5.57;2.80;;;;;;;;;;5098482;28;20456;-52
2021/09/12 12:06:04;;;;;;;5.37;2.60;;;;;;;;;;5106199;28;20435;-56
2021/09/12 12:08:36;;;;;;;3.67;2.23;;;;;;;;;;5099315;28;20503;-57
2021/09/12 12:11:07;;;;;;;4.97;2.27;;;;;;;;;;5118742;28;20483;-54
2021/09/12 12:13:38;;;;;;;4.10;2.60;;;;;;;;;;5108062;28;20502;-49
2021/09/12 12:16:06;;;;;;;5.13;3.40;;;;;;;;;;5099805;28;20460;-53
2021/09/12 12:24:49;;;;;;;4.30;2.23;;;;;;;;;;5106663;28;20439;-52
2021/09/12 12:27:18;;;;;;;5.17;2.63;;;;;;;;;;5112986;28;20460;-52
2021/09/12 12:30:21;;;;;;;3.80;1.67;;;;;;;;;;5109066;28;20479;-56
2021/09/12 12:32:49;;;;;;;5.23;3.10;;;;;;;;;;5107063;28;20475;-57
2021/09/12 12:35:53;;;;;;;5.43;2.53;;;;;;;;;;5117875;28;20511;-53
2021/09/12 12:38:26;;;;;;;3.00;1.80;;;;;;;;;;5126316;28;20465;-52
2021/09/12 12:41:31;;;;;;;3.67;1.83;;;;;;;;;;5121934;28;20477;-46
2021/09/12 12:44:16;;;;;;;4.37;1.90;;;;;;;;;;5111387;28;20467;-51
2021/09/12 12:46:52;;;;;;;3.47;1.80;;;;;;;;;;5118245;28;20436;-59
2021/09/12 12:52:10;;;;;;;5.90;2.30;;;;;;;;;;5117774;28;20441;-55
2021/09/12 12:57:46;;;;;;;4.60;2.53;;;;;;;;;;5115809;28;20477;-50
2021/09/12 13:00:25;;;;;;;4.53;2.57;;;;;;;;;;5114404;28;20696;-55
2021/09/12 13:02:54;;;;;;;4.57;2.50;;;;;;;;;;5115624;28;20468;-53
2021/09/12 13:05:27;;;;;;;5.07;2.00;;;;;;;;;;5109301;28;20443;-50
2021/09/12 13:08:26;;;;;;;8.00;2.20;;;;;;;;;;5114435;28;20439;-53
2021/09/12 13:10:53;;;;;;;5.60;2.40;;;;;;;;;;5104937;28;20582;-50
2021/09/12 13:13:21;;;;;;;4.47;2.83;;;;;;;;;;5116035;28;20475;-56
2021/09/12 13:15:56;;;;;;;4.20;2.30;;;;;;;;;;5116473;28;20450;-58
2021/09/12 13:18:52;;;;;;;7.23;3.20;;;;;;;;;;5116627;28;20451;-55
2021/09/12 13:21:47;;;;;;;6.90;3.00;;;;;;;;;;5097100;28;20490;-53
2021/09/12 13:27:16;;;;;;;8.17;2.60;;;;;;;;;;5106885;28;20478;-52
2021/09/12 13:29:44;;;;;;;8.10;4.50;;;;;;;;;;5116661;28;20499;-53
2021/09/12 13:32:12;;;;;;;5.73;2.13;;;;;;;;;;5099169;28;20444;-52
2021/09/12 13:34:39;;;;;;;6.20;3.00;;;;;;;;;;5095436;28;20785;-48
2021/09/12 13:37:07;;;;;;;7.07;4.43;;;;;;;;;;5112858;28;20684;-51
2021/09/12 13:39:44;;;;;;;5.77;4.00;;;;;;;;;;5116918;28;20473;-56
2021/09/12 13:42:13;;;;;;;3.90;2.50;;;;;;;;;;5116577;28;20512;-56
2021/09/12 13:44:40;;;;;;;4.47;2.43;;;;;;;;;;5116697;28;20459;-47
2021/09/12 13:47:19;;;;;;;3.80;2.20;;;;;;;;;;5116407;28;20463;-54
2021/09/12 13:49:54;;;;;;;4.53;2.20;;;;;;;;;;5114218;28;20491;-54
2021/09/12 13:55:18;;;;;;;7.40;2.50;;;;;;;;;;5110952;28;20550;-55
2021/09/12 13:57:45;;;;;;;4.20;2.50;;;;;;;;;;5116076;28;20455;-51
2021/09/12 14:00:13;;;;;;;5.27;2.37;;;;;;;;;;5115875;28;20473;-48
2021/09/12 14:02:45;;;;;;;4.17;2.00;;;;;;;;;;5115447;28;20427;-55
2021/09/12 14:05:15;;;;;;;5.23;3.10;;;;;;;;;;5116070;28;20480;-56
2021/09/12 14:08:08;;;;;;;9.73;2.60;;;;;;;;;;5116103;28;20432;-55
2021/09/12 14:10:38;;;;;;;6.00;2.53;;;;;;;;;;5116162;28;20451;-58
2021/09/12 14:13:05;;;;;;;6.10;3.20;;;;;;;;;;5112491;28;20475;-54
2021/09/12 14:15:59;;;;;;;5.43;2.40;;;;;;;;;;5101064;28;20431;-56
2021/09/12 14:18:27;;;;;;;4.17;1.80;;;;;;;;;;5101564;28;20588;-51
2021/09/12 14:20:55;;;;;;;5.30;2.37;;;;;;;;;;5115807;28;20454;-57
2021/09/12 14:23:25;;;;;;;4.60;2.17;;;;;;;;;;5115688;28;20465;-54
2021/09/12 14:25:54;;;;;;;3.17;1.70;;;;;;;;;;5116409;28;20461;-53
2021/09/12 14:28:22;;;;;;;4.20;2.30;;;;;;;;;;5116474;28;20451;-54
2021/09/12 14:30:50;;;;;;;6.87;2.93;;;;;;;;;;5115872;28;20473;-48
2021/09/12 14:33:24;;;;;;;6.87;2.70;;;;;;;;;;5116237;28;20440;-50
2021/09/12 14:35:56;;;;;;;4.63;2.30;;;;;;;;;;5116065;28;20469;-57
2021/09/12 14:38:25;;;;;;;3.77;2.53;;;;;;;;;;5116199;28;20456;-56
2021/09/12 14:40:55;;;;;;;6.10;2.50;;;;;;;;;;5116394;28;20431;-53
2021/09/12 14:43:26;;;;;;;5.87;3.17;;;;;;;;;;5128670;28;20443;-54
2021/09/12 14:45:54;;;;;;;4.10;2.50;;;;;;;;;;5119007;28;20450;-49
2021/09/12 14:48:22;;;;;;;4.53;2.27;;;;;;;;;;5122508;28;20462;-54
2021/09/12 14:50:52;;;;;;;3.50;1.97;;;;;;;;;;5118797;28;20454;-56
2021/09/12 14:53:19;;;;;;;6.73;3.63;;;;;;;;;;5118371;28;20481;-52
2021/09/12 14:55:47;;;;;;;4.40;2.17;;;;;;;;;;5119225;28;20439;-54
2021/09/12 14:58:16;;;;;;;4.27;1.63;;;;;;;;;;5118414;28;20450;-54
2021/09/12 15:00:43;;;;;;;3.47;2.07;;;;;;;;;;5118845;28;20462;-55
2021/09/12 15:03:28;;;;;;;4.80;1.87;;;;;;;;;;5116951;28;20459;-60
2021/09/12 15:05:57;;;;;;;5.10;2.60;;;;;;;;;;5119625;28;20450;-53
2021/09/12 15:08:25;;;;;;;4.57;2.50;;;;;;;;;;5119066;28;20453;-55
2021/09/12 15:14:07;;;;;;;9.97;4.77;;;;;;;;;;5119950;28;20505;-50
2021/09/12 15:16:35;;;;;;;5.73;2.70;;;;;;;;;;5119478;28;20462;-52
2021/09/12 15:19:14;;;;;;;6.77;2.87;;;;;;;;;;5109698;28;20458;-55
2021/09/12 15:21:44;;;;;;;4.80;2.80;;;;;;;;;;5119245;28;20892;-50
2021/09/12 15:24:11;;;;;;;5.07;3.17;;;;;;;;;;5118730;28;20514;-55
2021/09/12 15:26:38;;;;;;;6.10;3.13;;;;;;;;;;5106721;28;20482;-56
2021/09/12 15:29:07;;;;;;;5.30;2.80;;;;;;;;;;5119271;28;20458;-54
2021/09/12 15:31:41;;;;;;;4.93;2.30;;;;;;;;;;5120372;28;20781;-56
2021/09/12 15:34:10;;;;;;;4.00;2.23;;;;;;;;;;5110378;28;20479;-53
2021/09/12 15:36:39;;;;;;;6.37;2.57;;;;;;;;;;5104496;28;20458;-53
2021/09/12 15:39:06;;;;;;;7.20;2.60;;;;;;;;;;5118585;28;20466;-57
2021/09/12 15:41:34;;;;;;;4.90;2.70;;;;;;;;;;5118766;28;20519;-58
2021/09/12 15:44:24;;;;;;;6.33;3.23;;;;;;;;;;5118976;28;20451;-51
2021/09/12 15:46:54;;;;;;;4.27;2.27;;;;;;;;;;5119100;28;20459;-55
2021/09/12 15:49:22;;;;;;;6.70;2.50;;;;;;;;;;5118637;28;20439;-56
2021/09/12 15:52:15;;;;;;;7.07;2.80;;;;;;;;;;5117816;28;20457;-54
2021/09/12 15:54:46;;;;;;;7.33;2.60;;;;;;;;;;5098249;28;20513;-56
2021/09/12 15:57:20;;;;;;;10.97;4.03;;;;;;;;;;5098283;28;20460;-55
2021/09/12 15:59:48;;;;;;;5.77;2.70;;;;;;;;;;5118276;28;20447;-45
2021/09/12 16:02:17;;;;;;;10.10;2.60;;;;;;;;;;5119273;28;20450;-53
2021/09/12 16:04:53;;;;;;;7.10;3.20;;;;;;;;;;5118727;28;20481;-57
2021/09/12 16:07:22;;;;;;;6.10;3.17;;;;;;;;;;5118740;28;20442;-56
2021/09/12 16:09:50;;;;;;;4.60;2.20;;;;;;;;;;5118931;28;20474;-50